KSXT

Sexton Summit Airport

Sexton Summit, Oregon, USA
METAR KSXT 190656Z AUTO 20008KT 1/4SM FG VV002 04/04 A3026 RMK AO2 SLP250 T00440039
Observed Flight Rules
Dec-19 @ 06:56 UTC (39 minutes ago) Instrument Flight Rules
Wind Visibility Clouds Conditions
200° at 8 knots 1/4 miles
  • Vertical visibility at 200' AGL
  • Fog
Temperatures Readings
Current 4°C / 39°F
Dewpoint 4°C / 39°F
Humidity 100%
Altimeter 30.26" Hg
Pressure 1025 hPa
Elevation 1170
METAR KSXT 190656Z AUTO 20008KT 1/4SM FG VV002 04/04 A3026 RMK AO2 SLP250 T00440039
Observed Flight Rules
Dec-19 @ 06:56 UTC
(39 minutes ago)
LIFR
Wind Visibility
200° at 8 knots 1/4 miles
Clouds
  • Vertical visibility at 200' AGL
Conditions
  • Fog
Temperature Dewpoint
4°C / 39°F 4°C / 39°F
Humidity Altimeter Pressure
100% 30.26" Hg 1025 hPa